Time;durP1;ratioP1;P1;durP2;ratioP2;P2;SDS_P1;SDS_P2;PMS_P1;PMS_P2;Temp;Humidity;BMP_temperature;BMP_pressure;BME280_temperature;BME280_humidity;BME280_pressure;Samples;Min_cycle;Max_cycle;Signal;HPM_P1;HPM_P2
2022/02/23 00:00:29;;;;;;;;;;;9.80;86.20;;;;;;5079012;28;19916;-77
2022/02/23 00:02:54;;;;;;;;;;;9.80;85.70;;;;;;5079193;28;19908;-77
2022/02/23 00:05:20;;;;;;;;;;;9.80;85.50;;;;;;5078363;28;19962;-77
2022/02/23 00:07:46;;;;;;;;;;;9.80;85.50;;;;;;5079212;28;19912;-77
2022/02/23 00:10:11;;;;;;;;;;;9.80;85.50;;;;;;5078819;28;19915;-77
2022/02/23 00:12:37;;;;;;;;;;;9.80;85.40;;;;;;5078906;28;20962;-77
2022/02/23 00:15:04;;;;;;;;;;;9.70;85.30;;;;;;5078495;28;19908;-77
2022/02/23 00:17:30;;;;;;;;;;;9.70;85.40;;;;;;5078727;28;19962;-76
2022/02/23 00:19:56;;;;;;;;;;;9.80;86.50;;;;;;5078631;28;19908;-77
2022/02/23 00:22:22;;;;;;;;;;;9.70;86.40;;;;;;5078813;28;19908;-77
2022/02/23 00:24:48;;;;;;;;;;;9.70;85.70;;;;;;5078408;28;20299;-76
2022/02/23 00:27:14;;;;;;;;;;;9.60;85.60;;;;;;5078765;28;19913;-76
2022/02/23 00:29:40;;;;;;;;;;;9.60;86.20;;;;;;5060172;28;19976;-77
2022/02/23 00:32:06;;;;;;;;;;;9.60;86.50;;;;;;5060342;28;19908;-76
2022/02/23 00:34:31;;;;;;;;;;;9.50;85.80;;;;;;5078348;28;20004;-76
2022/02/23 00:36:57;;;;;;;;;;;9.50;85.50;;;;;;5078542;28;20002;-77
2022/02/23 00:39:23;;;;;;;;;;;9.40;85.40;;;;;;5077939;28;19908;-77
2022/02/23 00:41:49;;;;;;;;;;;9.40;85.30;;;;;;5078515;28;19916;-76
2022/02/23 00:44:15;;;;;;;;;;;9.40;85.20;;;;;;5077681;28;19973;-76
2022/02/23 00:46:41;;;;;;;;;;;9.40;85.20;;;;;;5051241;28;19999;-76
2022/02/23 00:49:07;;;;;;;;;;;9.40;85.40;;;;;;5055988;28;19914;-76
2022/02/23 00:51:33;;;;;;;;;;;9.30;85.20;;;;;;5078276;28;20364;-76
2022/02/23 00:53:58;;;;;;;;;;;9.30;85.10;;;;;;5078021;28;19970;-76
2022/02/23 00:56:24;;;;;;;;;;;9.30;85.00;;;;;;5078211;28;20081;-76
2022/02/23 00:58:50;;;;;;;;;;;9.30;85.00;;;;;;5077645;28;19920;-76
2022/02/23 01:01:15;;;;;;;;;;;9.20;85.00;;;;;;5060145;28;19909;-76
2022/02/23 01:03:41;;;;;;;;;;;9.20;85.10;;;;;;5077875;28;19916;-76
2022/02/23 01:06:07;;;;;;;;;;;9.10;85.00;;;;;;5078001;28;19930;-76
2022/02/23 01:08:32;;;;;;;;;;;9.10;85.00;;;;;;5077957;28;19958;-77
2022/02/23 01:10:58;;;;;;;;;;;9.10;85.80;;;;;;5077928;28;20003;-77
2022/02/23 01:13:24;;;;;;;;;;;9.10;85.10;;;;;;5077547;28;19908;-76
2022/02/23 01:15:50;;;;;;;;;;;9.00;85.10;;;;;;5077948;28;19913;-77
2022/02/23 01:18:15;;;;;;;;;;;9.00;85.20;;;;;;5076684;28;19912;-76
2022/02/23 01:20:41;;;;;;;;;;;8.90;85.30;;;;;;5077866;28;19961;-76
2022/02/23 01:23:07;;;;;;;;;;;8.90;85.40;;;;;;5077661;28;19913;-77
2022/02/23 01:25:33;;;;;;;;;;;8.80;85.50;;;;;;5077975;28;19909;-76
2022/02/23 01:28:01;;;;;;;;;;;8.80;85.40;;;;;;5077395;28;20274;-76
2022/02/23 01:30:27;;;;;;;;;;;8.80;85.50;;;;;;5077828;28;19916;-77
2022/02/23 01:32:53;;;;;;;;;;;8.80;85.70;;;;;;5077511;28;19954;-77
2022/02/23 01:35:18;;;;;;;;;;;8.80;85.90;;;;;;5077752;28;19908;-76
2022/02/23 01:37:44;;;;;;;;;;;8.70;85.90;;;;;;5077484;28;19920;-76
2022/02/23 01:40:10;;;;;;;;;;;8.70;85.90;;;;;;5077499;28;19915;-76
2022/02/23 01:42:36;;;;;;;;;;;8.70;86.30;;;;;;5077518;28;19909;-76
2022/02/23 01:45:01;;;;;;;;;;;8.70;85.80;;;;;;5077106;28;19927;-76
2022/02/23 01:47:27;;;;;;;;;;;8.60;85.80;;;;;;5064286;28;20011;-77
2022/02/23 01:49:56;;;;;;;;;;;8.60;85.80;;;;;;5077600;28;19995;-77
2022/02/23 01:52:25;;;;;;;;;;;8.60;85.90;;;;;;5077578;28;19916;-77
2022/02/23 01:54:51;;;;;;;;;;;8.60;86.10;;;;;;5077512;28;19915;-76
2022/02/23 01:57:17;;;;;;;;;;;8.50;86.00;;;;;;5077347;28;19948;-76
2022/02/23 01:59:43;;;;;;;;;;;8.60;86.10;;;;;;5059243;28;19916;-76
2022/02/23 02:02:09;;;;;;;;;;;8.50;86.10;;;;;;5059221;28;19915;-76
2022/02/23 02:04:35;;;;;;;;;;;8.50;86.20;;;;;;5077432;28;19909;-76
2022/02/23 02:07:00;;;;;;;;;;;8.60;86.20;;;;;;5077165;28;19915;-77
2022/02/23 02:09:26;;;;;;;;;;;8.50;86.20;;;;;;5077427;28;19908;-76
2022/02/23 02:11:51;;;;;;;;;;;8.50;86.20;;;;;;5077233;28;19909;-76
2022/02/23 02:14:17;;;;;;;;;;;8.50;86.20;;;;;;5077273;28;20333;-76
2022/02/23 02:16:43;;;;;;;;;;;8.50;86.20;;;;;;5077011;28;19909;-76
2022/02/23 02:19:08;;;;;;;;;;;8.50;86.20;;;;;;5077419;28;19983;-76
2022/02/23 02:21:50;;;;;;;;;;;8.50;86.30;;;;;;5059123;28;19909;-76
2022/02/23 02:24:16;;;;;;;;;;;8.50;86.50;;;;;;5076967;28;20272;-77
2022/02/23 02:26:42;;;;;;;;;;;8.50;86.90;;;;;;5077093;28;19965;-77
2022/02/23 02:29:07;;;;;;;;;;;8.50;86.90;;;;;;5077813;28;19920;-76
2022/02/23 02:31:33;;;;;;;;;;;8.60;89.00;;;;;;5080708;28;19999;-76
2022/02/23 02:33:59;;;;;;;;;;;8.60;87.90;;;;;;5080598;28;19915;-76
2022/02/23 02:36:24;;;;;;;;;;;8.60;87.60;;;;;;5080579;28;19991;-76
2022/02/23 02:38:50;;;;;;;;;;;8.60;87.50;;;;;;5080511;28;19999;-77
2022/02/23 02:41:15;;;;;;;;;;;8.60;87.20;;;;;;5080469;28;19916;-76
2022/02/23 02:43:41;;;;;;;;;;;8.60;87.20;;;;;;5080263;28;19956;-76
2022/02/23 02:46:07;;;;;;;;;;;8.50;87.20;;;;;;5076158;28;19916;-77
2022/02/23 02:48:32;;;;;;;;;;;8.50;87.20;;;;;;5072032;28;19909;-77
2022/02/23 02:50:58;;;;;;;;;;;8.50;87.10;;;;;;5062335;28;19920;-77
2022/02/23 02:53:23;;;;;;;;;;;8.50;87.20;;;;;;5080556;28;19908;-77
2022/02/23 02:55:49;;;;;;;;;;;8.50;87.30;;;;;;5080206;28;19912;-76
2022/02/23 02:58:15;;;;;;;;;;;8.50;87.30;;;;;;5080353;28;19912;-76
2022/02/23 03:00:40;;;;;;;;;;;8.40;87.40;;;;;;5062196;28;19916;-77
2022/02/23 03:03:06;;;;;;;;;;;8.40;87.50;;;;;;5080259;28;20001;-76
2022/02/23 03:05:32;;;;;;;;;;;8.40;87.70;;;;;;5079992;28;19938;-76
2022/02/23 03:07:57;;;;;;;;;;;8.40;87.60;;;;;;5080339;28;19966;-76
2022/02/23 03:10:23;;;;;;;;;;;8.40;87.90;;;;;;5079869;28;19958;-77
2022/02/23 03:12:49;;;;;;;;;;;8.40;87.60;;;;;;5079912;28;19915;-77
2022/02/23 03:15:14;;;;;;;;;;;8.40;87.50;;;;;;5079873;28;19981;-77
2022/02/23 03:17:40;;;;;;;;;;;8.40;87.60;;;;;;5080211;28;19919;-77
2022/02/23 03:20:07;;;;;;;;;;;8.40;87.60;;;;;;5079888;28;19915;-76
2022/02/23 03:22:34;;;;;;;;;;;8.30;87.60;;;;;;5080357;28;19909;-76
2022/02/23 03:24:59;;;;;;;;;;;8.30;87.20;;;;;;5079674;28;19912;-76
2022/02/23 03:27:25;;;;;;;;;;;8.30;87.40;;;;;;5080027;28;19909;-76
2022/02/23 03:29:50;;;;;;;;;;;8.30;87.60;;;;;;5079440;28;19914;-77
2022/02/23 03:32:16;;;;;;;;;;;8.30;87.70;;;;;;5079800;28;20008;-76
2022/02/23 03:34:42;;;;;;;;;;;8.40;87.80;;;;;;5079700;28;19908;-76
2022/02/23 03:37:07;;;;;;;;;;;8.40;87.60;;;;;;5079693;28;19938;-77
2022/02/23 03:39:33;;;;;;;;;;;8.40;87.60;;;;;;5079147;28;19909;-77
2022/02/23 03:41:59;;;;;;;;;;;8.40;87.60;;;;;;5078816;28;19908;-77
2022/02/23 03:44:25;;;;;;;;;;;8.30;87.20;;;;;;5078894;28;19921;-77
2022/02/23 03:46:50;;;;;;;;;;;8.40;87.20;;;;;;5069031;28;19909;-77
2022/02/23 03:49:16;;;;;;;;;;;8.30;87.00;;;;;;5076256;28;19908;-77
2022/02/23 03:51:42;;;;;;;;;;;8.30;87.00;;;;;;5079464;28;19912;-76
2022/02/23 03:54:07;;;;;;;;;;;8.30;87.00;;;;;;5079356;28;19918;-76
2022/02/23 03:56:39;;;;;;;;;;;8.30;87.00;;;;;;5079552;28;19954;-77
2022/02/23 03:59:06;;;;;;;;;;;8.30;87.60;;;;;;5078986;28;19920;-77
2022/02/23 04:01:33;;;;;;;;;;;8.20;87.10;;;;;;5079058;28;19969;-76
2022/02/23 04:03:59;;;;;;;;;;;8.20;87.10;;;;;;5078884;28;19916;-76
2022/02/23 04:06:26;;;;;;;;;;;8.20;87.30;;;;;;5078961;28;20371;-76
2022/02/23 04:08:52;;;;;;;;;;;8.20;87.40;;;;;;5078773;28;19948;-76
2022/02/23 04:11:18;;;;;;;;;;;8.10;87.90;;;;;;5079083;28;19912;-76
2022/02/23 04:13:44;;;;;;;;;;;8.10;87.60;;;;;;5078513;28;20326;-76
2022/02/23 04:16:10;;;;;;;;;;;8.10;87.90;;;;;;5079028;28;20395;-76
2022/02/23 04:18:35;;;;;;;;;;;8.10;88.10;;;;;;5078549;28;19935;-77
2022/02/23 04:21:01;;;;;;;;;;;8.10;87.90;;;;;;5060833;28;19952;-77
2022/02/23 04:23:27;;;;;;;;;;;8.10;88.00;;;;;;5078620;28;19909;-77
2022/02/23 04:25:53;;;;;;;;;;;8.10;88.00;;;;;;5078575;28;19908;-77
2022/02/23 04:28:18;;;;;;;;;;;8.10;88.10;;;;;;5078212;28;19908;-77
2022/02/23 04:30:44;;;;;;;;;;;8.10;88.10;;;;;;5078684;28;19995;-76
2022/02/23 04:33:10;;;;;;;;;;;8.10;88.30;;;;;;5078256;28;20367;-77
2022/02/23 04:35:35;;;;;;;;;;;8.20;88.40;;;;;;5078431;28;20268;-76
2022/02/23 04:38:01;;;;;;;;;;;8.20;88.30;;;;;;5078230;28;19912;-76
2022/02/23 04:40:27;;;;;;;;;;;8.20;87.90;;;;;;5078065;28;19912;-76
2022/02/23 04:42:53;;;;;;;;;;;8.20;88.00;;;;;;5077828;28;19912;-77
2022/02/23 04:45:19;;;;;;;;;;;8.20;88.00;;;;;;5078299;28;20275;-76
2022/02/23 04:47:45;;;;;;;;;;;8.20;88.10;;;;;;5064764;28;19910;-76
2022/02/23 04:50:11;;;;;;;;;;;8.20;88.10;;;;;;5078320;28;19915;-76
2022/02/23 04:52:37;;;;;;;;;;;8.20;88.70;;;;;;5077850;28;20003;-76
2022/02/23 04:55:02;;;;;;;;;;;8.20;88.70;;;;;;5078141;28;19916;-76
2022/02/23 04:57:28;;;;;;;;;;;8.20;88.60;;;;;;5077979;28;19913;-76
2022/02/23 04:59:54;;;;;;;;;;;8.20;88.70;;;;;;5077968;28;19908;-76
2022/02/23 05:02:20;;;;;;;;;;;8.20;88.60;;;;;;5077875;28;19935;-76
2022/02/23 05:04:45;;;;;;;;;;;8.20;88.70;;;;;;5078037;28;19939;-77
2022/02/23 05:07:11;;;;;;;;;;;8.20;88.80;;;;;;5076476;28;20344;-77
2022/02/23 05:09:37;;;;;;;;;;;8.20;88.80;;;;;;5059873;28;20448;-76
2022/02/23 05:12:03;;;;;;;;;;;8.20;88.70;;;;;;5078082;28;19909;-76
2022/02/23 05:14:29;;;;;;;;;;;8.20;88.50;;;;;;5077605;28;19915;-76
2022/02/23 05:16:55;;;;;;;;;;;8.30;88.50;;;;;;5077615;28;19912;-76
2022/02/23 05:19:20;;;;;;;;;;;8.30;88.90;;;;;;5077837;28;19999;-76
2022/02/23 05:21:46;;;;;;;;;;;8.30;88.70;;;;;;5077721;28;19948;-76
2022/02/23 05:24:11;;;;;;;;;;;8.30;88.30;;;;;;5077848;28;20006;-76
2022/02/23 05:26:37;;;;;;;;;;;8.30;88.50;;;;;;5077694;28;19913;-76
2022/02/23 05:29:03;;;;;;;;;;;8.30;88.50;;;;;;5077491;28;19909;-75
2022/02/23 05:31:28;;;;;;;;;;;8.30;88.60;;;;;;5077596;28;19909;-76
2022/02/23 05:33:54;;;;;;;;;;;8.30;88.60;;;;;;5077571;28;20298;-77
2022/02/23 05:36:20;;;;;;;;;;;8.30;88.80;;;;;;5077612;28;19908;-77
2022/02/23 05:38:45;;;;;;;;;;;8.30;88.80;;;;;;5059554;28;19919;-79
2022/02/23 05:41:11;;;;;;;;;;;8.30;88.60;;;;;;5077247;28;19995;-77
2022/02/23 05:43:36;;;;;;;;;;;8.30;88.30;;;;;;5077298;28;19921;-76
2022/02/23 05:46:02;;;;;;;;;;;8.30;88.30;;;;;;5073679;28;19939;-76
2022/02/23 05:48:28;;;;;;;;;;;8.30;88.40;;;;;;5068059;28;19920;-76
2022/02/23 05:50:53;;;;;;;;;;;8.30;88.30;;;;;;5077509;28;19908;-78
2022/02/23 05:53:19;;;;;;;;;;;8.30;88.70;;;;;;5059551;28;19963;-77
2022/02/23 05:55:44;;;;;;;;;;;8.30;88.50;;;;;;5077338;28;19915;-77
2022/02/23 05:58:10;;;;;;;;;;;8.30;88.30;;;;;;5077401;28;19913;-75
2022/02/23 06:00:36;;;;;;;;;;;8.30;88.20;;;;;;5077320;28;19909;-75
2022/02/23 06:03:05;;;;;;;;;;;8.30;88.30;;;;;;5077373;28;20003;-75
2022/02/23 06:05:31;;;;;;;;;;;8.30;88.40;;;;;;5080572;28;19908;-75
2022/02/23 06:07:57;;;;;;;;;;;8.30;88.50;;;;;;5081400;28;19915;-77
2022/02/23 06:10:25;;;;;;;;;;;8.30;88.60;;;;;;5080999;28;19915;-76
2022/02/23 06:12:51;;;;;;;;;;;8.40;88.90;;;;;;5080671;28;19920;-76
2022/02/23 06:15:17;;;;;;;;;;;8.30;88.90;;;;;;5063311;28;19987;-73
2022/02/23 06:17:43;;;;;;;;;;;8.30;89.50;;;;;;5081059;28;19944;-75
2022/02/23 06:20:08;;;;;;;;;;;8.40;89.50;;;;;;5080659;28;19955;-74
2022/02/23 06:22:34;;;;;;;;;;;8.40;89.20;;;;;;5080960;28;20425;-75
2022/02/23 06:25:00;;;;;;;;;;;8.30;89.10;;;;;;5062513;28;19934;-75
2022/02/23 06:27:25;;;;;;;;;;;8.30;89.00;;;;;;5080887;28;19909;-76
2022/02/23 06:29:51;;;;;;;;;;;8.40;89.30;;;;;;5080544;28;19916;-76
2022/02/23 06:32:16;;;;;;;;;;;8.30;89.90;;;;;;5080723;28;19908;-76
2022/02/23 06:34:42;;;;;;;;;;;8.40;89.30;;;;;;5062962;28;19905;-76
2022/02/23 06:37:08;;;;;;;;;;;8.40;89.00;;;;;;5062692;28;19917;-76
2022/02/23 06:39:36;;;;;;;;;;;8.40;88.80;;;;;;5062312;28;20382;-76
2022/02/23 06:42:02;;;;;;;;;;;8.40;89.00;;;;;;5080698;28;20375;-76
2022/02/23 06:44:28;;;;;;;;;;;8.40;89.90;;;;;;5080034;28;20343;-76
2022/02/23 06:46:54;;;;;;;;;;;8.40;89.60;;;;;;5051631;28;20280;-76
2022/02/23 06:49:19;;;;;;;;;;;8.40;89.10;;;;;;5078096;28;20321;-76
2022/02/23 06:51:46;;;;;;;;;;;8.40;88.80;;;;;;5080590;28;20448;-76
2022/02/23 06:54:12;;;;;;;;;;;8.40;89.40;;;;;;5080347;28;19909;-76
2022/02/23 06:56:38;;;;;;;;;;;8.40;88.90;;;;;;5062478;28;19916;-75
2022/02/23 06:59:03;;;;;;;;;;;8.40;88.50;;;;;;5079951;28;19959;-75
2022/02/23 07:01:29;;;;;;;;;;;8.40;88.20;;;;;;5080191;28;19909;-76
2022/02/23 07:03:55;;;;;;;;;;;8.40;88.40;;;;;;5080032;28;19963;-76
2022/02/23 07:06:21;;;;;;;;;;;8.40;88.80;;;;;;5079897;28;20292;-76
2022/02/23 07:08:48;;;;;;;;;;;8.40;88.60;;;;;;5079474;28;19966;-76
2022/02/23 07:11:14;;;;;;;;;;;8.40;88.40;;;;;;5080233;28;19909;-76
2022/02/23 07:13:40;;;;;;;;;;;8.40;88.30;;;;;;5079744;28;19916;-76
2022/02/23 07:16:06;;;;;;;;;;;8.40;88.20;;;;;;5080098;28;19908;-76
2022/02/23 07:18:31;;;;;;;;;;;8.40;88.10;;;;;;5079754;28;19920;-76
2022/02/23 07:20:57;;;;;;;;;;;8.40;88.20;;;;;;5080106;28;20359;-75
2022/02/23 07:23:23;;;;;;;;;;;8.40;88.20;;;;;;5079811;28;19909;-76
2022/02/23 07:25:52;;;;;;;;;;;8.50;88.30;;;;;;5079937;28;19912;-75
2022/02/23 07:28:18;;;;;;;;;;;8.50;88.10;;;;;;5079431;28;19908;-76
2022/02/23 07:30:44;;;;;;;;;;;8.50;88.10;;;;;;5079952;28;19931;-75
2022/02/23 07:33:10;;;;;;;;;;;8.50;88.20;;;;;;5079526;28;20287;-75
2022/02/23 07:35:36;;;;;;;;;;;8.50;88.20;;;;;;5079873;28;19958;-75
2022/02/23 07:38:05;;;;;;;;;;;8.50;88.30;;;;;;5079449;28;20581;-75
2022/02/23 07:40:31;;;;;;;;;;;8.50;88.40;;;;;;5079398;28;19912;-75
2022/02/23 07:42:57;;;;;;;;;;;8.50;88.20;;;;;;5078979;28;20295;-76
2022/02/23 07:45:22;;;;;;;;;;;8.50;88.10;;;;;;5079627;28;19942;-75
2022/02/23 07:47:48;;;;;;;;;;;8.50;88.00;;;;;;5064191;28;20378;-76
2022/02/23 07:50:16;;;;;;;;;;;8.60;88.10;;;;;;5079666;28;19908;-76
2022/02/23 07:52:42;;;;;;;;;;;8.60;88.10;;;;;;5079228;28;19909;-75
2022/02/23 07:55:08;;;;;;;;;;;8.60;88.20;;;;;;5079374;28;19912;-75
2022/02/23 07:57:34;;;;;;;;;;;8.60;88.30;;;;;;5078857;28;20374;-75
2022/02/23 08:00:00;;;;;;;;;;;8.60;88.30;;;;;;5079186;28;20386;-76
2022/02/23 08:02:32;;;;;;;;;;;8.70;88.20;;;;;;5079086;28;19975;-76
2022/02/23 08:04:58;;;;;;;;;;;8.70;88.10;;;;;;5078935;28;19908;-76
2022/02/23 08:07:23;;;;;;;;;;;8.70;88.00;;;;;;5079145;28;19909;-76
2022/02/23 08:09:49;;;;;;;;;;;8.80;88.10;;;;;;5078837;28;19909;-76
2022/02/23 08:12:15;;;;;;;;;;;8.80;88.10;;;;;;5079198;28;19916;-75
2022/02/23 08:14:41;;;;;;;;;;;8.80;88.00;;;;;;5078577;28;19909;-76
2022/02/23 08:19:51;;;;;;;;;;;8.90;88.10;;;;;;5079066;28;19916;-75
2022/02/23 08:22:17;;;;;;;;;;;9.00;88.30;;;;;;5078810;28;19908;-76
2022/02/23 08:24:44;;;;;;;;;;;9.00;88.40;;;;;;5078629;28;20363;-76
2022/02/23 08:27:11;;;;;;;;;;;9.10;88.60;;;;;;5078280;28;19931;-76
2022/02/23 08:29:37;;;;;;;;;;;9.10;88.70;;;;;;5078322;28;19915;-76
2022/02/23 08:32:03;;;;;;;;;;;9.20;88.70;;;;;;5078624;28;20351;-75
2022/02/23 08:34:29;;;;;;;;;;;9.20;88.50;;;;;;5078378;28;19966;-76
2022/02/23 08:36:55;;;;;;;;;;;9.30;88.50;;;;;;5078536;28;20002;-75
2022/02/23 08:39:21;;;;;;;;;;;9.30;88.40;;;;;;5078114;28;19915;-75
2022/02/23 08:41:47;;;;;;;;;;;9.40;88.50;;;;;;5078490;28;20751;-75
2022/02/23 08:44:13;;;;;;;;;;;9.40;88.50;;;;;;5078001;28;19927;-76
2022/02/23 08:46:39;;;;;;;;;;;9.50;88.50;;;;;;5069690;28;19913;-76
2022/02/23 08:49:07;;;;;;;;;;;9.50;88.50;;;;;;5073905;28;19909;-76
2022/02/23 08:51:33;;;;;;;;;;;9.60;88.50;;;;;;5078432;28;20450;-76
2022/02/23 08:53:59;;;;;;;;;;;9.60;88.40;;;;;;5078138;28;19908;-76
2022/02/23 08:56:24;;;;;;;;;;;9.70;88.50;;;;;;5078281;28;19957;-75
2022/02/23 08:58:50;;;;;;;;;;;9.80;88.50;;;;;;5077749;28;19938;-75
2022/02/23 09:01:16;;;;;;;;;;;9.80;88.50;;;;;;5078200;28;19909;-76
2022/02/23 09:03:43;;;;;;;;;;;9.90;88.60;;;;;;5077941;28;19948;-75
2022/02/23 09:06:09;;;;;;;;;;;9.90;88.50;;;;;;5078019;28;20015;-76
2022/02/23 09:08:34;;;;;;;;;;;10.00;88.60;;;;;;5078020;28;19950;-75
2022/02/23 09:11:00;;;;;;;;;;;10.00;88.50;;;;;;5077945;28;19970;-76
2022/02/23 09:13:26;;;;;;;;;;;10.10;88.50;;;;;;5077539;28;19915;-75
2022/02/23 09:15:51;;;;;;;;;;;10.20;88.60;;;;;;5078127;28;19943;-76
2022/02/23 09:18:17;;;;;;;;;;;10.30;88.50;;;;;;5077789;28;19961;-75
2022/02/23 09:20:42;;;;;;;;;;;10.30;88.20;;;;;;5077960;28;20011;-75
2022/02/23 09:23:08;;;;;;;;;;;10.30;87.90;;;;;;5077762;28;19947;-76
2022/02/23 09:25:34;;;;;;;;;;;10.40;87.90;;;;;;5059730;28;20394;-76
2022/02/23 09:27:59;;;;;;;;;;;10.50;87.60;;;;;;5077494;28;19971;-75
2022/02/23 09:30:25;;;;;;;;;;;10.50;87.50;;;;;;5078028;28;20329;-76
2022/02/23 09:32:51;;;;;;;;;;;10.60;87.40;;;;;;5077597;28;19916;-76
2022/02/23 09:35:18;;;;;;;;;;;10.60;87.30;;;;;;5078081;28;19908;-76
2022/02/23 09:37:44;;;;;;;;;;;10.70;87.10;;;;;;5059476;28;19912;-76
2022/02/23 09:40:10;;;;;;;;;;;10.70;87.00;;;;;;5062338;28;20317;-76
2022/02/23 09:42:35;;;;;;;;;;;10.80;87.10;;;;;;5081421;28;19913;-75
2022/02/23 09:45:03;;;;;;;;;;;10.80;87.00;;;;;;5081690;28;19920;-76
2022/02/23 09:47:32;;;;;;;;;;;10.80;86.90;;;;;;5050224;28;19972;-75
2022/02/23 09:50:02;;;;;;;;;;;10.90;87.10;;;;;;5082050;28;19909;-76
2022/02/23 09:52:28;;;;;;;;;;;10.90;87.10;;;;;;5063470;28;19908;-75
2022/02/23 09:54:57;;;;;;;;;;;10.90;87.00;;;;;;5081733;28;19915;-75
2022/02/23 09:57:23;;;;;;;;;;;11.00;87.10;;;;;;5081222;28;20289;-75
2022/02/23 09:59:49;;;;;;;;;;;10.90;87.00;;;;;;5081615;28;19915;-76
2022/02/23 10:02:15;;;;;;;;;;;10.90;86.80;;;;;;5081351;28;19908;-75
2022/02/23 10:04:41;;;;;;;;;;;10.90;86.80;;;;;;5081443;28;20422;-76
2022/02/23 10:07:07;;;;;;;;;;;10.90;86.70;;;;;;5081161;28;19956;-75
2022/02/23 10:09:43;;;;;;;;;;;10.90;86.80;;;;;;5063303;28;19908;-76
2022/02/23 10:12:19;;;;;;;;;;;10.90;87.30;;;;;;5081107;28;19908;-76
2022/02/23 10:14:45;;;;;;;;;;;10.90;87.70;;;;;;5063066;28;19916;-76
2022/02/23 10:17:11;;;;;;;;;;;10.90;87.70;;;;;;5063038;28;19909;-75
2022/02/23 10:19:46;;;;;;;;;;;10.90;87.60;;;;;;5081056;28;19944;-75
2022/02/23 10:22:12;;;;;;;;;;;10.80;87.50;;;;;;5081114;28;19916;-75
2022/02/23 10:24:38;;;;;;;;;;;10.80;87.10;;;;;;5080915;28;19908;-75
2022/02/23 10:27:08;;;;;;;;;;;10.80;87.00;;;;;;5081072;28;19980;-75
2022/02/23 10:29:36;;;;;;;;;;;10.90;87.50;;;;;;5080602;28;19909;-75
2022/02/23 10:32:06;;;;;;;;;;;10.90;87.10;;;;;;5080953;28;20007;-76
2022/02/23 10:34:36;;;;;;;;;;;10.90;87.00;;;;;;5080731;28;19977;-76
2022/02/23 10:37:06;;;;;;;;;;;11.00;87.10;;;;;;5080958;28;19909;-75
2022/02/23 10:39:35;;;;;;;;;;;11.00;86.70;;;;;;5080502;28;19974;-75
2022/02/23 10:42:08;;;;;;;;;;;11.10;86.70;;;;;;5062960;28;19909;-76
2022/02/23 10:44:33;;;;;;;;;;;11.10;86.50;;;;;;5080337;28;20366;-75
2022/02/23 10:47:00;;;;;;;;;;;11.20;86.40;;;;;;5069011;28;19913;-75
2022/02/23 10:49:26;;;;;;;;;;;11.30;86.10;;;;;;5078530;28;19908;-75
2022/02/23 10:51:55;;;;;;;;;;;11.30;85.40;;;;;;5080713;28;19908;-75
2022/02/23 10:54:21;;;;;;;;;;;11.30;85.20;;;;;;5080271;28;19955;-75
2022/02/23 10:56:47;;;;;;;;;;;11.40;84.70;;;;;;5080606;28;19909;-75
2022/02/23 10:59:19;;;;;;;;;;;11.40;84.20;;;;;;5080022;28;19916;-75
2022/02/23 11:01:46;;;;;;;;;;;11.50;83.50;;;;;;5080517;28;19959;-75
2022/02/23 11:04:12;;;;;;;;;;;11.60;82.40;;;;;;5080123;28;20370;-75
2022/02/23 11:06:38;;;;;;;;;;;11.70;81.70;;;;;;5062212;28;20007;-75
2022/02/23 11:09:05;;;;;;;;;;;11.70;81.00;;;;;;5067148;28;19909;-75
2022/02/23 11:11:31;;;;;;;;;;;11.70;80.70;;;;;;5080140;28;19912;-76
2022/02/23 11:13:58;;;;;;;;;;;11.70;79.70;;;;;;5080136;28;19908;-76
2022/02/23 11:16:25;;;;;;;;;;;11.70;78.60;;;;;;5080068;28;20014;-75
2022/02/23 11:18:52;;;;;;;;;;;11.80;79.00;;;;;;5080014;28;19916;-75
2022/02/23 11:21:19;;;;;;;;;;;11.70;77.10;;;;;;5079940;28;19915;-76
2022/02/23 11:23:46;;;;;;;;;;;11.80;76.20;;;;;;5079984;28;19908;-75
2022/02/23 11:26:15;;;;;;;;;;;11.70;76.80;;;;;;5079903;28;19908;-75
2022/02/23 11:28:44;;;;;;;;;;;11.80;76.90;;;;;;5061576;28;19908;-75
2022/02/23 11:31:13;;;;;;;;;;;11.80;76.50;;;;;;5079749;28;20363;-75
2022/02/23 11:33:53;;;;;;;;;;;11.80;76.60;;;;;;5079906;28;19909;-75
2022/02/23 11:36:22;;;;;;;;;;;11.90;76.60;;;;;;5061641;28;19909;-75
2022/02/23 11:38:49;;;;;;;;;;;12.00;76.20;;;;;;5079548;28;19957;-76
2022/02/23 11:41:22;;;;;;;;;;;12.10;75.80;;;;;;5079419;28;19947;-75
2022/02/23 11:43:47;;;;;;;;;;;12.20;75.90;;;;;;5079242;28;19967;-74
2022/02/23 11:46:13;;;;;;;;;;;12.50;73.30;;;;;;5074433;28;19909;-74
2022/02/23 11:48:46;;;;;;;;;;;12.80;72.10;;;;;;5071622;28;19963;-75
2022/02/23 11:51:22;;;;;;;;;;;12.90;72.30;;;;;;5079477;28;20026;-75
2022/02/23 11:53:47;;;;;;;;;;;12.90;72.80;;;;;;5079325;28;19908;-74
2022/02/23 11:56:14;;;;;;;;;;;13.00;71.00;;;;;;5079444;28;20347;-74
2022/02/23 11:58:44;;;;;;;;;;;13.00;71.30;;;;;;5078892;28;19966;-74
2022/02/23 12:01:09;;;;;;;;;;;13.00;72.50;;;;;;5078924;28;19952;-75
2022/02/23 12:03:35;;;;;;;;;;;13.00;71.30;;;;;;5078684;28;19916;-74
2022/02/23 12:06:05;;;;;;;;;;;12.90;70.70;;;;;;5079147;28;19913;-75
2022/02/23 12:08:43;;;;;;;;;;;12.90;69.10;;;;;;5078893;28;19958;-74
2022/02/23 12:11:10;;;;;;;;;;;12.80;71.40;;;;;;5079006;28;20375;-74
2022/02/23 12:13:42;;;;;;;;;;;12.80;70.80;;;;;;5078604;28;19912;-74
2022/02/23 12:16:21;;;;;;;;;;;12.80;71.40;;;;;;5078939;28;19912;-75
2022/02/23 12:18:47;;;;;;;;;;;12.80;70.30;;;;;;5075960;28;19913;-74
2022/02/23 12:21:13;;;;;;;;;;;12.80;68.20;;;;;;5078754;28;19916;-74
2022/02/23 12:23:40;;;;;;;;;;;12.80;69.00;;;;;;5079047;28;19909;-74
2022/02/23 12:26:10;;;;;;;;;;;12.80;68.40;;;;;;5060554;28;19944;-74
2022/02/23 12:28:37;;;;;;;;;;;12.90;67.20;;;;;;5078495;28;20276;-74
2022/02/23 12:31:12;;;;;;;;;;;12.90;69.10;;;;;;5078539;28;19931;-74
2022/02/23 12:33:38;;;;;;;;;;;12.90;67.50;;;;;;5078511;28;19909;-74
2022/02/23 12:36:05;;;;;;;;;;;12.90;66.60;;;;;;5078494;28;19908;-74
2022/02/23 12:38:40;;;;;;;;;;;13.00;66.60;;;;;;5060555;28;19940;-74
2022/02/23 12:41:10;;;;;;;;;;;13.00;65.70;;;;;;5078000;28;19915;-74
2022/02/23 12:43:36;;;;;;;;;;;13.00;65.20;;;;;;5078118;28;19943;-74
2022/02/23 12:46:02;;;;;;;;;;;13.10;64.20;;;;;;5074431;28;19913;-74
2022/02/23 12:48:33;;;;;;;;;;;13.10;65.80;;;;;;5050940;28;20011;-74
2022/02/23 12:51:05;;;;;;;;;;;13.20;66.30;;;;;;5077440;28;20383;-74
2022/02/23 12:53:35;;;;;;;;;;;13.20;65.50;;;;;;5078450;28;19909;-74
2022/02/23 12:56:21;;;;;;;;;;;13.30;67.90;;;;;;5078159;28;19913;-74
2022/02/23 12:58:49;;;;;;;;;;;13.40;66.90;;;;;;5077618;28;19913;-75
2022/02/23 13:01:25;;;;;;;;;;;13.50;66.00;;;;;;5060236;28;19955;-73
2022/02/23 13:03:55;;;;;;;;;;;13.60;63.60;;;;;;5077920;28;19908;-73
2022/02/23 13:06:26;;;;;;;;;;;13.60;62.30;;;;;;5078111;28;20379;-74
2022/02/23 13:08:52;;;;;;;;;;;13.60;63.30;;;;;;5077788;28;19915;-74
2022/02/23 13:11:25;;;;;;;;;;;13.60;63.80;;;;;;5078043;28;19915;-74
2022/02/23 13:13:50;;;;;;;;;;;13.60;64.60;;;;;;5064451;28;19913;-74
2022/02/23 13:16:24;;;;;;;;;;;13.70;65.80;;;;;;5078103;28;19999;-74
2022/02/23 13:19:00;;;;;;;;;;;13.80;64.00;;;;;;5077827;28;19916;-74
2022/02/23 13:21:35;;;;;;;;;;;13.90;64.90;;;;;;5077827;28;19959;-74
2022/02/23 13:24:01;;;;;;;;;;;13.90;63.70;;;;;;5077884;28;19909;-74
2022/02/23 13:26:30;;;;;;;;;;;14.00;64.70;;;;;;5077802;28;19931;-73
2022/02/23 13:29:00;;;;;;;;;;;14.10;62.00;;;;;;5077592;28;19909;-74
2022/02/23 13:31:31;;;;;;;;;;;14.20;63.20;;;;;;5077695;28;19948;-73
2022/02/23 13:34:16;;;;;;;;;;;14.40;61.30;;;;;;5077647;28;19978;-73
2022/02/23 13:36:42;;;;;;;;;;;14.60;61.80;;;;;;5081910;28;19909;-73
2022/02/23 13:39:22;;;;;;;;;;;14.70;60.50;;;;;;5077325;28;19919;-74
2022/02/23 13:41:50;;;;;;;;;;;14.70;62.70;;;;;;5077945;28;19915;-74
2022/02/23 13:44:23;;;;;;;;;;;14.70;63.60;;;;;;5077073;28;19956;-73
2022/02/23 13:46:58;;;;;;;;;;;14.70;64.00;;;;;;5067454;28;20374;-73
2022/02/23 13:49:25;;;;;;;;;;;14.70;61.60;;;;;;5075757;28;19915;-74
2022/02/23 13:51:50;;;;;;;;;;;14.70;62.90;;;;;;5077824;28;19920;-73
2022/02/23 13:54:17;;;;;;;;;;;14.70;62.50;;;;;;5077468;28;19908;-74
2022/02/23 13:56:46;;;;;;;;;;;14.60;61.60;;;;;;5077646;28;19990;-74
2022/02/23 13:59:16;;;;;;;;;;;14.50;61.80;;;;;;5077018;28;19913;-73
2022/02/23 14:02:00;;;;;;;;;;;14.30;60.90;;;;;;5059571;28;19913;-74
2022/02/23 14:04:58;;;;;;;;;;;14.30;63.40;;;;;;5070387;28;19991;-74
2022/02/23 14:07:24;;;;;;;;;;;14.30;62.70;;;;;;5030759;28;19916;-74
2022/02/23 14:09:50;;;;;;;;;;;14.40;63.00;;;;;;5077306;28;19913;-74
2022/02/23 14:12:16;;;;;;;;;;;14.30;64.00;;;;;;5077422;28;19916;-74
2022/02/23 14:14:43;;;;;;;;;;;14.40;63.30;;;;;;5077329;28;19909;-74
2022/02/23 14:17:18;;;;;;;;;;;14.40;62.30;;;;;;5063911;28;19912;-74
2022/02/23 14:19:44;;;;;;;;;;;14.30;62.80;;;;;;5077228;28;19908;-74
2022/02/23 14:22:15;;;;;;;;;;;14.30;62.30;;;;;;5077236;28;19908;-73
2022/02/23 14:24:42;;;;;;;;;;;14.20;62.40;;;;;;5077308;28;19958;-74
2022/02/23 14:27:11;;;;;;;;;;;14.10;62.60;;;;;;5080979;28;19912;-74